AirNav   Everest Fuels
 
 399 users online  

VT34 Major W Guth Airport
Westminster, Vermont, USA

GOING TO WESTMINSTER?


FAA INFORMATION EFFECTIVE 10 SEPTEMBER 2020

Location

FAA Identifier: VT34
Lat/Long: 43-03-36.2850N 072-29-31.3190W
43-03.604750N 072-29.521983W
43.0600792,-72.4920331
(estimated)
Elevation: 819 ft. / 249.6 m (surveyed)
Variation: 15W (1985)
From city: 2 miles SW of WESTMINSTER, VT
Time zone: UTC -4 (UTC -5 during Standard Time)
Zip code: 05346

Airport Operations

Airport use: Private use. Permission required prior to landing
Activation date: 09/1976
Control tower: no
ARTCC: BOSTON CENTER
FSS: BURLINGTON FLIGHT SERVICE STATION
Attendance: UNATNDD
Wind indicator: yes
Segmented circle: no

Airport Communications

WX AWOS-3PT at EEN (14 nm SE): 119.025 (603-358-6424)
WX ASOS at VSF (17 nm N): 121.425 (802-886-6006)

Nearby radio navigation aids

VOR radial/distance  VOR name  Freq  Var
EENr345/18.2KEENE VORTAC109.4014W
GDMr342/36.3GARDNER VOR/DME110.6014W
CAMr098/37.6CAMBRIDGE VOR/DME115.0014W
LEBr213/39.0LEBANON VOR/DME113.7015W

 
NDB name  Hdg/Dist  Freq  Var  ID
CLAREMONT212/19.323316WCNH -.-. -. ....

Airport Services

Runway Information

Runway 1/19

Dimensions: 1200 x 90 ft. / 366 x 27 m
Surface: gravel
RUNWAY 1  RUNWAY 19
Traffic pattern: leftleft

Airport Ownership and Management from official FAA records

Ownership: Privately-owned
Owner: CHARLES APPLEBAUM/K. GUTH
1600 E. BALBOA BLVD.
BALBOA, CA 92661
Phone 714-739-5656
Manager: CHARLES APPLEBAUM/K. GUTH
1600 E. BALBOA BLVD.
BALBOA, CA 92661
Phone 714-432-6630

Airport Operational Statistics

Aircraft based on the field: 1
Single engine airplanes: 1
    

Additional Remarks

FOR CD CTC BOSTON ARTCC AT 603-879-6859.

Instrument Procedures

There are no published instrument procedures at VT34.

Some nearby airports with instrument procedures:

KEEN - Dillant-Hopkins Airport (14 nm SE)
KVSF - Hartness State Airport (Springfield) (17 nm N)
4V8 - Deerfield Valley Regional Airport (18 nm SW)
KCNH - Claremont Municipal Airport (19 nm N)
2B3 - Parlin Field Airport (24 nm NE)
 
Loc | Ops | Rwys | IFR | FBO | Links
Com | Nav | Svcs | Stats | Notes
Area around VT34 (Major W Guth Airport)
 
Road maps at: MapQuest Bing Google
 
Aerial photo
No photo
 
Sectional chart

 
Airport distance calculator
Flying to Major W Guth Airport? Find the distance to fly.

From to VT34

Sunrise and sunset
Times for 18-Sep-2020
 Local
(UTC-4)
 Zulu
(UTC)
Morning civil twilight06:0610:06
Sunrise06:3510:35
Sunset18:5322:53
Evening civil twilight19:2123:21

Current date and time
Zulu (UTC)  18-Sep-2020 07:56:06
Local (UTC-4)  18-Sep-2020 03:56:06
 
METAR
KEEN 
15nm SE 
180656Z AUTO 33006KT 10SM OVC031 14/11 A3001 RMK AO2 SLP166 T01390106 PNO $
KVSF 
17nm N 
180654Z AUTO 00000KT 10SM SCT002 OVC047 12/12 A3004 RMK AO2 SLP172 T01220117
KAFN 
27nm SE 
180728Z AUTO 01003KT 10SM OVC033 14/09 A3001 RMK AO2 T01390094
TAF
KRUT 
34nm NW 
180540Z 1806/1906 VRB03KT P6SM BKN008 OVC040 FM180900 VRB06KT P6SM SCT060 FM181400 36007KT P6SM FEW180 FM181700 34010KT P6SM FEW200 FM190200 VRB04KT P6SM SKC
KLEB 
35nm N 
180534Z 1806/1906 VRB03KT P6SM OVC040 FM181500 36009G16KT P6SM BKN040 FM182300 35003KT P6SM SKC
NOTAMs
Click for the latest NOTAMs
NOTAMs are issued by the DoD/FAA and will open in a separate window not controlled by AirNav.

 

 
 

Would you like to see your business listed on this page?

 If your business provides an interesting product or service to pilots, flight crews, aircraft, or users of the Major W Guth Airport, you should consider listing it here.  To start the listing process, click on the button below
 
Add a business
 

Other Pages about Major W Guth Airport

Update a link
 
Copyright © AirNav, LLC. All rights reserved. Privacy Policy  Contact